createdAt,value
2018-09-17T00:01:24.327Z,14.40
2018-09-17T00:03:53.226Z,14.30
2018-09-17T00:06:23.034Z,14.40
2018-09-17T00:08:52.060Z,14.40
2018-09-17T00:11:20.915Z,14.40
2018-09-17T00:13:49.908Z,14.40
2018-09-17T00:16:18.647Z,14.30
2018-09-17T00:18:50.371Z,14.30
2018-09-17T00:21:19.208Z,14.30
2018-09-17T00:23:49.032Z,14.30
2018-09-17T00:26:17.965Z,14.30
2018-09-17T00:28:47.933Z,14.30
2018-09-17T00:31:16.761Z,14.30
2018-09-17T00:33:45.735Z,14.30
2018-09-17T00:37:43.964Z,14.20
2018-09-17T00:40:12.412Z,14.30
2018-09-17T00:42:41.412Z,14.30
2018-09-17T00:45:10.308Z,14.40
2018-09-17T00:47:39.509Z,14.40
2018-09-17T00:50:08.564Z,14.30
2018-09-17T00:52:37.385Z,14.30
2018-09-17T00:55:06.401Z,14.30
2018-09-17T00:57:35.100Z,14.30
2018-09-17T01:00:03.321Z,14.30
2018-09-17T01:02:32.044Z,14.30
2018-09-17T01:05:00.935Z,14.30
2018-09-17T01:07:29.656Z,14.20
2018-09-17T01:09:58.265Z,14.20
2018-09-17T01:12:27.206Z,14.20
2018-09-17T01:14:56.316Z,14.20
2018-09-17T01:17:24.621Z,14.10
2018-09-17T01:19:53.284Z,14.10
2018-09-17T01:22:22.348Z,14.00
2018-09-17T01:24:52.173Z,14.00
2018-09-17T01:27:20.881Z,14.00
2018-09-17T01:29:49.514Z,14.00
2018-09-17T01:32:18.420Z,14.00
2018-09-17T01:34:47.264Z,14.00
2018-09-17T01:37:15.988Z,13.90
2018-09-17T01:39:44.916Z,13.90
2018-09-17T01:42:14.238Z,13.90
2018-09-17T01:44:43.064Z,13.80
2018-09-17T01:47:12.019Z,13.80
2018-09-17T01:49:40.744Z,13.70
2018-09-17T01:52:09.763Z,13.70
2018-09-17T01:54:37.992Z,13.70
2018-09-17T01:57:06.700Z,13.70
2018-09-17T01:59:35.144Z,13.60
2018-09-17T02:02:03.963Z,13.60
2018-09-17T02:04:33.108Z,13.60
2018-09-17T02:07:01.939Z,13.60
2018-09-17T02:09:30.998Z,13.60
2018-09-17T02:11:59.628Z,13.50
2018-09-17T02:14:28.411Z,13.60
2018-09-17T02:16:57.196Z,13.60
2018-09-17T02:19:26.464Z,13.60
2018-09-17T02:21:55.609Z,13.60
2018-09-17T02:24:24.750Z,13.60
2018-09-17T02:26:53.377Z,13.60
2018-09-17T02:29:22.164Z,13.50
2018-09-17T02:31:51.036Z,13.50
2018-09-17T02:34:19.940Z,13.50
2018-09-17T02:36:48.540Z,13.50
2018-09-17T02:39:17.960Z,13.50
2018-09-17T02:41:46.704Z,13.50
2018-09-17T02:44:15.856Z,13.50
2018-09-17T02:46:45.002Z,13.50
2018-09-17T02:49:13.844Z,13.50
2018-09-17T02:51:42.493Z,13.50
2018-09-17T02:54:11.003Z,13.50
2018-09-17T02:56:40.079Z,13.50
2018-09-17T02:59:11.747Z,13.40
2018-09-17T03:01:41.378Z,13.40
2018-09-17T03:04:12.398Z,13.40
2018-09-17T03:06:42.210Z,13.40
2018-09-17T03:09:11.727Z,13.40
2018-09-17T03:11:41.264Z,13.40
2018-09-17T03:14:10.608Z,13.40
2018-09-17T03:16:50.476Z,13.40
2018-09-17T03:19:19.989Z,13.40
2018-09-17T03:21:48.871Z,13.40
2018-09-17T03:24:17.689Z,13.40
2018-09-17T03:26:47.292Z,13.40
2018-09-17T03:29:17.393Z,13.40
2018-09-17T03:31:46.154Z,13.40
2018-09-17T03:34:15.337Z,13.40
2018-09-17T03:36:44.286Z,13.40
2018-09-17T03:39:13.913Z,13.40
2018-09-17T03:41:43.156Z,13.40
2018-09-17T03:44:11.829Z,13.40
2018-09-17T03:46:40.595Z,13.40
2018-09-17T03:49:09.755Z,13.40
2018-09-17T03:51:40.270Z,13.40
2018-09-17T03:54:08.744Z,13.40
2018-09-17T03:56:37.352Z,13.40
2018-09-17T03:59:06.401Z,13.40
2018-09-17T04:01:35.034Z,13.40
2018-09-17T04:04:03.656Z,13.40
2018-09-17T04:06:33.058Z,13.30
2018-09-17T04:13:50.269Z,13.30
2018-09-17T04:16:19.198Z,13.30
2018-09-17T04:18:47.896Z,13.30
2018-09-17T04:21:16.338Z,13.30
2018-09-17T04:23:45.060Z,13.40
2018-09-17T04:26:13.698Z,13.40
2018-09-17T04:28:42.334Z,13.40
2018-09-17T04:31:11.089Z,13.40
2018-09-17T04:33:41.128Z,13.40
2018-09-17T04:36:10.434Z,13.50
2018-09-17T04:38:39.251Z,13.50
2018-09-17T04:41:08.044Z,13.40
2018-09-17T04:43:36.852Z,13.40
2018-09-17T04:46:05.488Z,13.40
2018-09-17T04:48:34.142Z,13.40
2018-09-17T04:51:02.860Z,13.40
2018-09-17T04:53:31.489Z,13.40
2018-09-17T04:56:00.385Z,13.40
2018-09-17T04:58:29.305Z,13.40
2018-09-17T05:00:58.246Z,13.40
2018-09-17T05:03:27.145Z,13.40
2018-09-17T05:05:55.355Z,13.50
2018-09-17T05:08:24.528Z,13.50
2018-09-17T05:10:53.353Z,13.50
2018-09-17T05:13:22.277Z,13.50
2018-09-17T05:15:51.264Z,13.50
2018-09-17T05:18:19.894Z,13.40
2018-09-17T05:20:48.933Z,13.40
2018-09-17T05:23:17.804Z,13.30
2018-09-17T05:25:47.433Z,13.30
2018-09-17T05:28:16.152Z,13.20
2018-09-17T05:30:45.340Z,13.20
2018-09-17T05:33:13.920Z,13.20
2018-09-17T05:35:42.544Z,13.30
2018-09-17T05:38:11.832Z,13.30
2018-09-17T05:40:40.029Z,13.20
2018-09-17T05:43:08.836Z,13.30
2018-09-17T05:45:37.662Z,13.30
2018-09-17T05:48:06.337Z,13.30
2018-09-17T05:50:35.395Z,13.30
2018-09-17T05:53:04.125Z,13.30
2018-09-17T05:55:32.920Z,13.30
2018-09-17T05:58:01.653Z,13.30
2018-09-17T06:00:30.276Z,13.30
2018-09-17T06:02:59.715Z,13.40
2018-09-17T06:05:28.228Z,13.40
2018-09-17T06:07:56.761Z,13.50
2018-09-17T06:10:26.616Z,13.50
2018-09-17T06:12:55.492Z,13.60
2018-09-17T06:15:24.430Z,13.60
2018-09-17T06:17:53.286Z,13.70
2018-09-17T06:20:21.852Z,13.70
2018-09-17T06:22:50.594Z,13.70
2018-09-17T06:25:19.301Z,13.80
2018-09-17T06:27:48.159Z,13.90
2018-09-17T06:31:41.285Z,13.90
2018-09-17T06:34:10.032Z,14.00
2018-09-17T06:36:38.738Z,14.10
2018-09-17T06:39:08.109Z,14.20
2018-09-17T06:41:36.532Z,14.30
2018-09-17T06:44:05.110Z,14.30
2018-09-17T06:46:33.970Z,14.50
2018-09-17T06:49:02.832Z,14.60
2018-09-17T06:51:31.588Z,14.70
2018-09-17T06:54:01.817Z,14.80
2018-09-17T06:56:31.610Z,14.90
2018-09-17T06:59:00.708Z,15.00
2018-09-17T07:01:29.543Z,15.10
2018-09-17T07:03:59.047Z,15.10
2018-09-17T07:06:27.854Z,15.10
2018-09-17T07:08:56.692Z,15.20
2018-09-17T07:11:25.416Z,15.30
2018-09-17T07:13:54.128Z,15.30
2018-09-17T07:16:22.949Z,15.40
2018-09-17T07:18:51.623Z,15.50
2018-09-17T07:21:20.350Z,15.50
2018-09-17T07:23:48.854Z,15.60
2018-09-17T07:26:17.727Z,15.70
2018-09-17T07:28:46.469Z,15.70
2018-09-17T07:31:15.500Z,15.80
2018-09-17T07:33:44.070Z,15.90
2018-09-17T07:36:12.819Z,16.00
2018-09-17T07:38:41.633Z,16.00
2018-09-17T07:41:10.380Z,16.10
2018-09-17T07:43:39.116Z,16.20
2018-09-17T07:46:08.074Z,16.30
2018-09-17T07:48:36.956Z,16.30
2018-09-17T07:51:06.017Z,16.40
2018-09-17T07:53:34.631Z,16.50
2018-09-17T07:56:03.553Z,16.50
2018-09-17T07:58:32.151Z,16.60
2018-09-17T08:01:01.084Z,16.60
2018-09-17T08:03:30.149Z,16.70
2018-09-17T08:05:58.765Z,16.80
2018-09-17T08:08:27.484Z,16.90
2018-09-17T08:10:56.230Z,16.90
2018-09-17T08:13:25.044Z,17.00
2018-09-17T08:15:53.684Z,17.10
2018-09-17T08:18:22.592Z,17.20
2018-09-17T08:20:51.516Z,17.20
2018-09-17T08:23:20.165Z,17.20
2018-09-17T08:25:49.145Z,17.30
2018-09-17T08:28:17.664Z,17.40
2018-09-17T08:30:46.316Z,17.40
2018-09-17T08:33:15.133Z,17.40
2018-09-17T08:35:43.662Z,17.50
2018-09-17T08:38:12.434Z,17.60
2018-09-17T08:40:41.288Z,17.60
2018-09-17T08:43:10.252Z,17.70
2018-09-17T08:45:38.734Z,17.70
2018-09-17T08:48:08.832Z,17.80
2018-09-17T08:50:37.180Z,17.80
2018-09-17T08:53:06.660Z,17.90
2018-09-17T08:55:41.065Z,17.90
2018-09-17T08:58:14.766Z,18.00
2018-09-17T09:00:48.571Z,18.00
2018-09-17T09:03:22.388Z,18.10
2018-09-17T09:06:59.085Z,18.20
2018-09-17T09:09:28.228Z,18.30
2018-09-17T09:12:04.416Z,18.40
2018-09-17T09:14:38.001Z,18.50
2018-09-17T09:17:07.405Z,18.60
2018-09-17T09:19:36.555Z,18.60
2018-09-17T09:22:05.380Z,18.70
2018-09-17T09:24:34.976Z,18.80
2018-09-17T09:27:03.958Z,18.80
2018-09-17T09:29:32.525Z,18.90
2018-09-17T09:32:01.333Z,19.00
2018-09-17T09:34:30.246Z,19.10
2018-09-17T09:36:59.076Z,19.20
2018-09-17T09:39:27.905Z,19.20
2018-09-17T09:41:57.839Z,19.30
2018-09-17T09:44:26.785Z,19.40
2018-09-17T09:46:55.596Z,19.50
2018-09-17T09:49:24.686Z,19.50
2018-09-17T09:51:52.945Z,19.60
2018-09-17T09:54:21.192Z,19.60
2018-09-17T09:56:50.228Z,19.70
2018-09-17T09:59:18.988Z,19.80
2018-09-17T10:01:58.204Z,19.80
2018-09-17T10:04:26.747Z,19.90
2018-09-17T10:06:55.828Z,19.90
2018-09-17T10:09:29.752Z,19.90
2018-09-17T10:12:04.248Z,19.90
2018-09-17T10:14:38.377Z,19.90
2018-09-17T10:17:12.018Z,20.00
2018-09-17T10:19:46.035Z,20.00
2018-09-17T10:22:14.707Z,20.00
2018-09-17T10:24:44.285Z,20.10
2018-09-17T10:27:13.205Z,20.00
2018-09-17T10:29:42.341Z,20.10
2018-09-17T10:32:10.964Z,20.10
2018-09-17T10:34:40.194Z,20.20
2018-09-17T10:37:09.250Z,20.30
2018-09-17T10:39:38.401Z,20.20
2018-09-17T10:42:07.574Z,20.20
2018-09-17T10:44:36.680Z,20.30
2018-09-17T10:47:05.308Z,20.40
2018-09-17T10:49:34.345Z,20.50
2018-09-17T10:52:02.861Z,20.50
2018-09-17T10:54:31.572Z,20.50
2018-09-17T10:57:00.828Z,20.50
2018-09-17T10:59:29.967Z,20.40
2018-09-17T11:01:58.688Z,20.50
2018-09-17T11:04:27.348Z,20.50
2018-09-17T11:06:56.201Z,20.50
2018-09-17T11:09:24.830Z,20.50
2018-09-17T11:11:53.358Z,20.50
2018-09-17T11:14:21.774Z,20.50
2018-09-17T11:16:50.394Z,20.60
2018-09-17T11:19:18.929Z,20.70
2018-09-17T11:21:47.832Z,20.70
2018-09-17T11:24:16.353Z,20.70
2018-09-17T11:26:44.598Z,20.90
2018-09-17T11:29:13.546Z,21.00
2018-09-17T11:31:42.696Z,21.20
2018-09-17T11:34:11.707Z,21.50
2018-09-17T11:36:40.791Z,21.50
2018-09-17T11:39:10.864Z,21.60
2018-09-17T11:41:40.040Z,21.60
2018-09-17T11:44:08.602Z,21.90
2018-09-17T11:46:37.912Z,22.10
2018-09-17T11:49:06.912Z,22.30
2018-09-17T11:51:35.850Z,22.60
2018-09-17T11:54:05.092Z,22.60
2018-09-17T11:56:33.356Z,22.70
2018-09-17T11:59:01.673Z,22.70
2018-09-17T12:01:35.965Z,22.90
2018-09-17T12:05:08.192Z,22.90
2018-09-17T12:07:41.757Z,23.00
2018-09-17T12:10:11.028Z,22.90
2018-09-17T12:12:40.254Z,23.00
2018-09-17T12:15:09.085Z,23.10
2018-09-17T12:17:38.549Z,23.20
2018-09-17T12:20:06.981Z,23.20
2018-09-17T12:22:36.104Z,23.40
2018-09-17T12:25:04.603Z,23.50
2018-09-17T12:27:33.628Z,23.70
2018-09-17T12:30:02.383Z,23.80
2018-09-17T12:32:31.201Z,23.90
2018-09-17T12:34:59.753Z,24.00
2018-09-17T12:37:28.908Z,24.20
2018-09-17T12:39:57.841Z,24.10
2018-09-17T12:42:26.874Z,24.20
2018-09-17T12:44:56.011Z,24.10
2018-09-17T12:47:24.922Z,24.30
2018-09-17T12:49:54.063Z,24.40
2018-09-17T12:52:23.127Z,24.50
2018-09-17T12:54:52.267Z,24.60
2018-09-17T12:57:20.797Z,24.70
2018-09-17T12:59:49.792Z,24.70
2018-09-17T13:02:18.138Z,24.70
2018-09-17T13:04:47.137Z,24.80
2018-09-17T13:07:15.381Z,24.80
2018-09-17T13:09:43.989Z,24.50
2018-09-17T13:12:12.884Z,24.60
2018-09-17T13:14:41.859Z,24.70
2018-09-17T13:17:10.595Z,24.80
2018-09-17T13:19:39.442Z,24.90
2018-09-17T13:22:08.376Z,24.80
2018-09-17T13:24:36.956Z,25.00
2018-09-17T13:28:34.641Z,25.10
2018-09-17T13:31:03.452Z,25.10
2018-09-17T13:33:32.404Z,25.10
2018-09-17T13:36:01.126Z,25.10
2018-09-17T13:38:30.036Z,25.10
2018-09-17T13:40:59.000Z,25.00
2018-09-17T13:43:27.650Z,25.20
2018-09-17T13:45:56.401Z,25.40
2018-09-17T13:48:25.434Z,25.40
2018-09-17T13:50:54.373Z,25.50
2018-09-17T13:53:23.418Z,25.60
2018-09-17T13:55:52.274Z,25.60
2018-09-17T13:58:21.105Z,25.50
2018-09-17T14:00:50.152Z,25.40
2018-09-17T14:03:19.100Z,25.50
2018-09-17T14:05:47.243Z,25.60
2018-09-17T14:08:16.211Z,25.60
2018-09-17T14:10:46.259Z,25.60
2018-09-17T14:13:15.345Z,25.70
2018-09-17T14:16:20.159Z,25.50
2018-09-17T14:18:48.536Z,25.30
2018-09-17T14:21:20.444Z,25.30
2018-09-17T14:23:48.726Z,25.40
2018-09-17T14:26:17.379Z,25.50
2018-09-17T14:28:46.101Z,25.40
2018-09-17T14:31:15.304Z,25.50
2018-09-17T14:33:43.497Z,25.60
2018-09-17T14:36:11.885Z,25.50
2018-09-17T14:38:40.425Z,25.50
2018-09-17T14:41:10.416Z,25.60
2018-09-17T14:43:39.368Z,25.80
2018-09-17T14:46:08.358Z,25.90
2018-09-17T14:50:06.934Z,26.00
2018-09-17T14:52:35.320Z,26.00
2018-09-17T14:55:04.468Z,26.30
2018-09-17T14:57:33.207Z,26.30
2018-09-17T15:00:02.337Z,26.30
2018-09-17T15:02:31.513Z,26.30
2018-09-17T15:05:00.241Z,26.30
2018-09-17T15:07:29.216Z,26.10
2018-09-17T15:09:57.513Z,26.20
2018-09-17T15:12:26.369Z,26.20
2018-09-17T15:14:55.124Z,26.30
2018-09-17T15:17:24.211Z,26.30
2018-09-17T15:19:52.960Z,26.30
2018-09-17T15:22:23.992Z,26.50
2018-09-17T15:24:53.027Z,26.20
2018-09-17T15:27:22.236Z,26.20
2018-09-17T15:29:51.833Z,26.20
2018-09-17T15:32:20.531Z,26.20
2018-09-17T15:34:49.672Z,26.30
2018-09-17T15:37:17.933Z,26.50
2018-09-17T15:39:46.454Z,26.50
2018-09-17T15:42:16.052Z,26.50
2018-09-17T15:44:44.964Z,26.60
2018-09-17T15:47:14.015Z,26.80
2018-09-17T15:49:42.877Z,26.90
2018-09-17T15:52:11.398Z,27.00
2018-09-17T15:54:41.152Z,27.10
2018-09-17T15:57:10.513Z,27.10
2018-09-17T15:59:39.089Z,27.30
2018-09-17T16:02:07.684Z,27.40
2018-09-17T16:04:36.642Z,27.60
2018-09-17T16:07:05.841Z,27.70
2018-09-17T16:09:34.065Z,27.80
2018-09-17T16:12:03.837Z,27.90
2018-09-17T16:14:33.778Z,28.10
2018-09-17T16:17:02.868Z,28.20
2018-09-17T16:26:30.682Z,28.40
2018-09-17T16:29:00.012Z,28.80
2018-09-17T16:31:28.669Z,28.90
2018-09-17T16:33:56.897Z,29.00
2018-09-17T16:36:25.724Z,29.10
2018-09-17T16:38:54.460Z,29.10
2018-09-17T16:41:23.528Z,29.10
2018-09-17T16:43:52.440Z,29.30
2018-09-17T16:46:21.520Z,29.30
2018-09-17T16:48:50.344Z,29.00
2018-09-17T16:51:19.282Z,28.60
2018-09-17T16:53:48.265Z,28.20
2018-09-17T16:56:17.325Z,27.70
2018-09-17T16:58:46.248Z,27.30
2018-09-17T17:01:15.144Z,26.80
2018-09-17T17:03:44.002Z,26.30
2018-09-17T17:06:13.409Z,25.90
2018-09-17T17:08:41.684Z,25.50
2018-09-17T17:11:10.625Z,25.20
2018-09-17T17:13:39.653Z,24.80
2018-09-17T17:16:08.739Z,24.50
2018-09-17T17:18:37.760Z,24.20
2018-09-17T17:21:06.352Z,24.00
2018-09-17T17:23:35.452Z,23.80
2018-09-17T17:26:04.120Z,23.50
2018-09-17T17:28:32.936Z,23.30
2018-09-17T17:31:01.740Z,23.00
2018-09-17T17:33:31.149Z,22.80
2018-09-17T17:36:00.096Z,22.60
2018-09-17T17:38:28.917Z,22.50
2018-09-17T17:41:00.980Z,22.30
2018-09-17T17:43:29.397Z,22.10
2018-09-17T17:45:58.174Z,21.90
2018-09-17T17:48:27.020Z,21.70
2018-09-17T17:50:55.725Z,21.50
2018-09-17T17:53:24.715Z,21.30
2018-09-17T17:55:53.408Z,21.10
2018-09-17T17:58:23.323Z,21.00
2018-09-17T18:00:52.186Z,20.80
2018-09-17T18:03:20.761Z,20.70
2018-09-17T18:05:49.486Z,20.50
2018-09-17T18:08:18.448Z,20.40
2018-09-17T18:10:47.036Z,20.30
2018-09-17T18:13:16.063Z,20.10
2018-09-17T18:15:44.841Z,20.00
2018-09-17T18:18:14.541Z,19.90
2018-09-17T18:20:44.538Z,19.80
2018-09-17T18:23:13.196Z,19.70
2018-09-17T18:25:43.211Z,19.60
2018-09-17T18:28:12.054Z,19.50
2018-09-17T18:30:40.765Z,19.30
2018-09-17T18:33:09.503Z,19.30
2018-09-17T18:35:39.183Z,19.20
2018-09-17T18:38:08.083Z,19.00
2018-09-17T18:40:43.637Z,19.00
2018-09-17T18:43:13.094Z,18.90
2018-09-17T18:45:41.838Z,18.70
2018-09-17T18:48:10.825Z,18.70
2018-09-17T18:50:39.948Z,18.60
2018-09-17T18:53:08.928Z,18.50
2018-09-17T18:55:37.698Z,18.40
2018-09-17T18:58:06.475Z,18.30
2018-09-17T19:00:36.221Z,18.30
2018-09-17T19:03:05.454Z,18.30
2018-09-17T19:05:34.089Z,18.20
2018-09-17T19:08:02.859Z,18.10
2018-09-17T19:10:31.586Z,18.10
2018-09-17T19:13:00.133Z,18.00
2018-09-17T19:15:34.751Z,18.00
2018-09-17T19:18:21.385Z,17.90
2018-09-17T19:20:50.795Z,17.90
2018-09-17T19:23:27.113Z,17.90
2018-09-17T19:25:56.850Z,17.80
2018-09-17T19:28:30.502Z,17.70
2018-09-17T19:30:59.265Z,17.70
2018-09-17T19:33:28.201Z,17.60
2018-09-17T19:35:57.199Z,17.60
2018-09-17T19:38:32.631Z,17.60
2018-09-17T19:41:03.232Z,17.50
2018-09-17T19:43:32.128Z,17.50
2018-09-17T19:46:06.820Z,17.40
2018-09-17T19:48:35.300Z,17.40
2018-09-17T19:51:10.631Z,17.30
2018-09-17T19:53:42.092Z,17.30
2018-09-17T19:56:11.165Z,17.20
2018-09-17T19:58:45.697Z,17.10
2018-09-17T20:01:14.257Z,17.10
2018-09-17T20:03:42.996Z,17.10
2018-09-17T20:06:17.071Z,17.00
2018-09-17T20:08:52.065Z,16.90
2018-09-17T20:11:20.323Z,16.90
2018-09-17T20:13:49.484Z,16.80
2018-09-17T20:16:19.141Z,16.80
2018-09-17T20:18:49.909Z,16.80
2018-09-17T20:21:19.429Z,16.80
2018-09-17T20:23:48.328Z,16.80
2018-09-17T20:26:16.921Z,16.80
2018-09-17T20:28:45.799Z,16.80
2018-09-17T20:31:14.636Z,16.80
2018-09-17T20:33:43.559Z,16.90
2018-09-17T20:36:12.352Z,16.90
2018-09-17T20:38:42.728Z,16.90
2018-09-17T20:41:11.105Z,16.90
2018-09-17T20:43:39.956Z,16.90
2018-09-17T20:46:08.647Z,16.90
2018-09-17T20:48:37.517Z,16.90
2018-09-17T20:51:06.164Z,17.00
2018-09-17T20:53:35.293Z,17.00
2018-09-17T20:56:05.325Z,17.00
2018-09-17T20:58:34.192Z,17.00
2018-09-17T21:01:03.022Z,17.00
2018-09-17T21:03:32.015Z,17.00
2018-09-17T21:06:00.562Z,17.10
2018-09-17T21:08:29.273Z,17.00
2018-09-17T21:10:58.364Z,17.00
2018-09-17T21:13:27.124Z,17.00
2018-09-17T21:15:57.014Z,17.00
2018-09-17T21:18:25.652Z,17.00
2018-09-17T21:20:57.557Z,17.00
2018-09-17T21:23:26.610Z,17.00
2018-09-17T21:25:56.422Z,17.00
2018-09-17T21:28:25.518Z,17.00
2018-09-17T21:30:54.255Z,17.00
2018-09-17T21:33:22.990Z,16.90
2018-09-17T21:35:52.010Z,16.90
2018-09-17T21:38:22.465Z,16.90
2018-09-17T21:40:51.060Z,17.00
2018-09-17T21:43:22.811Z,17.00
2018-09-17T21:45:51.704Z,17.00
2018-09-17T21:48:21.890Z,17.00
2018-09-17T21:50:50.360Z,16.90
2018-09-17T21:53:19.194Z,17.00
2018-09-17T21:55:48.257Z,17.00
2018-09-17T21:58:16.714Z,17.00
2018-09-17T22:01:06.078Z,16.90
2018-09-17T22:03:35.434Z,16.90
2018-09-17T22:06:04.271Z,16.90
2018-09-17T22:08:33.005Z,16.90
2018-09-17T22:11:01.670Z,16.90
2018-09-17T22:13:30.339Z,16.80
2018-09-17T22:15:59.231Z,16.90
2018-09-17T22:18:27.722Z,16.80
2018-09-17T22:20:56.289Z,16.80
2018-09-17T22:23:25.112Z,16.90
2018-09-17T22:25:54.024Z,16.80
2018-09-17T22:28:22.945Z,16.80
2018-09-17T22:30:51.667Z,16.70
2018-09-17T22:33:20.809Z,16.70
2018-09-17T22:35:49.839Z,16.70
2018-09-17T22:38:19.717Z,16.60
2018-09-17T22:40:48.748Z,16.60
2018-09-17T22:43:17.657Z,16.60
2018-09-17T22:45:47.609Z,16.60
2018-09-17T22:48:16.757Z,16.60
2018-09-17T22:50:46.527Z,16.50
2018-09-17T22:53:15.309Z,16.50
2018-09-17T22:55:44.225Z,16.50
2018-09-17T22:58:13.023Z,16.50
2018-09-17T23:00:41.864Z,16.50
2018-09-17T23:03:10.791Z,16.50
2018-09-17T23:05:39.546Z,16.50
2018-09-17T23:08:08.628Z,16.40
2018-09-17T23:10:37.137Z,16.40
2018-09-17T23:13:06.010Z,16.30
2018-09-17T23:15:34.804Z,16.30
2018-09-17T23:18:03.525Z,16.30
2018-09-17T23:20:32.426Z,16.30
2018-09-17T23:23:01.025Z,16.30
2018-09-17T23:25:29.765Z,16.20
2018-09-17T23:27:58.873Z,16.20
2018-09-17T23:30:27.463Z,16.20
2018-09-17T23:32:56.395Z,16.20
2018-09-17T23:35:25.413Z,16.20
2018-09-17T23:37:54.577Z,16.10
2018-09-17T23:40:23.208Z,16.10
2018-09-17T23:42:52.326Z,16.00
2018-09-17T23:45:21.124Z,16.00
2018-09-17T23:47:50.329Z,15.90
2018-09-17T23:50:18.849Z,15.80
2018-09-17T23:52:47.169Z,15.80
2018-09-17T23:55:16.576Z,15.70
2018-09-17T23:57:44.901Z,15.60
